sensor_id;sensor_type;location;lat;lon;timestamp;pressure;altitude;pressure_sealevel;temperature;humidity
10482;BME280;5288;42.334;23.876;2022-12-26T00:01:52;56468.41;;;-140.56;74.96
10482;BME280;5288;42.334;23.876;2022-12-26T00:04:19;56502.00;;;-140.56;75.19
10482;BME280;5288;42.334;23.876;2022-12-26T00:06:48;56484.22;;;-140.56;75.80
10482;BME280;5288;42.334;23.876;2022-12-26T00:09:15;56505.97;;;-140.56;75.68
10482;BME280;5288;42.334;23.876;2022-12-26T00:11:44;56484.22;;;-140.56;75.38
10482;BME280;5288;42.334;23.876;2022-12-26T00:14:13;56496.09;;;-140.56;75.64
10482;BME280;5288;42.334;23.876;2022-12-26T00:16:42;56492.13;;;-140.56;75.64
10482;BME280;5288;42.334;23.876;2022-12-26T00:19:09;56511.91;;;-140.56;75.43
10482;BME280;5288;42.334;23.876;2022-12-26T00:21:36;56525.72;;;-140.56;75.70
10482;BME280;5288;42.334;23.876;2022-12-26T00:24:04;56492.13;;;-140.56;75.11
10482;BME280;5288;42.334;23.876;2022-12-26T00:26:32;56509.91;;;-140.56;75.22
10482;BME280;5288;42.334;23.876;2022-12-26T00:29:02;56494.09;;;-140.56;74.75
10482;BME280;5288;42.334;23.876;2022-12-26T00:31:31;56470.38;;;-140.56;74.55
10482;BME280;5288;42.334;23.876;2022-12-26T00:33:58;56504.00;;;-140.56;75.04
10482;BME280;5288;42.334;23.876;2022-12-26T00:36:27;56490.16;;;-140.56;75.79
10482;BME280;5288;42.334;23.876;2022-12-26T00:38:55;56515.84;;;-140.56;75.79
10482;BME280;5288;42.334;23.876;2022-12-26T00:41:22;56531.66;;;-140.56;74.98
10482;BME280;5288;42.334;23.876;2022-12-26T00:43:49;56507.94;;;-140.56;74.74
10482;BME280;5288;42.334;23.876;2022-12-26T00:46:18;56525.72;;;-140.56;74.79
10482;BME280;5288;42.334;23.876;2022-12-26T00:48:45;56539.56;;;-140.56;74.76
10482;BME280;5288;42.334;23.876;2022-12-26T00:51:13;56505.97;;;-140.56;75.79
10482;BME280;5288;42.334;23.876;2022-12-26T00:53:40;56511.91;;;-140.56;75.09
10482;BME280;5288;42.334;23.876;2022-12-26T00:56:07;56505.97;;;-140.56;76.02
10482;BME280;5288;42.334;23.876;2022-12-26T00:58:34;56519.81;;;-140.56;75.56
10482;BME280;5288;42.334;23.876;2022-12-26T01:01:06;56521.78;;;-140.56;75.75
10482;BME280;5288;42.334;23.876;2022-12-26T01:03:34;56496.09;;;-140.56;75.75
10482;BME280;5288;42.334;23.876;2022-12-26T01:06:02;56490.16;;;-140.56;76.17
10482;BME280;5288;42.334;23.876;2022-12-26T01:08:30;56539.56;;;-140.56;76.07
10482;BME280;5288;42.334;23.876;2022-12-26T01:11:02;56502.00;;;-140.56;76.28
10482;BME280;5288;42.334;23.876;2022-12-26T01:13:30;56529.69;;;-140.56;77.26
10482;BME280;5288;42.334;23.876;2022-12-26T01:15:57;56513.88;;;-140.56;77.88
10482;BME280;5288;42.334;23.876;2022-12-26T01:18:24;56492.13;;;-140.56;78.27
10482;BME280;5288;42.334;23.876;2022-12-26T01:20:57;56523.75;;;-140.56;78.07
10482;BME280;5288;42.334;23.876;2022-12-26T01:23:24;56529.69;;;-140.56;78.84
10482;BME280;5288;42.334;23.876;2022-12-26T01:25:51;56498.06;;;-140.56;78.69
10482;BME280;5288;42.334;23.876;2022-12-26T01:28:18;56488.19;;;-140.56;79.10
10482;BME280;5288;42.334;23.876;2022-12-26T01:30:46;56525.72;;;-140.56;79.30
10482;BME280;5288;42.334;23.876;2022-12-26T01:33:13;56498.06;;;-140.56;79.96
10482;BME280;5288;42.334;23.876;2022-12-26T01:35:48;56472.38;;;-140.56;79.76
10482;BME280;5288;42.334;23.876;2022-12-26T01:38:16;56492.13;;;-140.56;79.71
10482;BME280;5288;42.334;23.876;2022-12-26T01:40:44;56494.09;;;-140.56;80.00
10482;BME280;5288;42.334;23.876;2022-12-26T01:43:12;56488.19;;;-140.56;80.28
10482;BME280;5288;42.334;23.876;2022-12-26T01:45:39;56517.81;;;-140.56;79.78
10482;BME280;5288;42.334;23.876;2022-12-26T01:48:14;56484.22;;;-140.56;79.36
10482;BME280;5288;42.334;23.876;2022-12-26T01:50:45;56523.75;;;-140.56;80.10
10482;BME280;5288;42.334;23.876;2022-12-26T01:53:18;56519.81;;;-140.56;79.31
10482;BME280;5288;42.334;23.876;2022-12-26T01:55:49;56543.50;;;-140.56;78.70
10482;BME280;5288;42.334;23.876;2022-12-26T01:58:20;56507.94;;;-140.56;78.25
10482;BME280;5288;42.334;23.876;2022-12-26T02:00:48;56504.00;;;-140.56;77.95
10482;BME280;5288;42.334;23.876;2022-12-26T02:03:16;56537.59;;;-140.56;77.90
10482;BME280;5288;42.334;23.876;2022-12-26T02:06:00;56515.84;;;-140.56;77.71
10482;BME280;5288;42.334;23.876;2022-12-26T02:08:32;56551.41;;;-140.56;77.48
10482;BME280;5288;42.334;23.876;2022-12-26T02:11:06;56533.63;;;-140.56;77.17
10482;BME280;5288;42.334;23.876;2022-12-26T02:13:37;56511.91;;;-140.56;77.35
10482;BME280;5288;42.334;23.876;2022-12-26T02:16:06;56547.47;;;-140.56;77.06
10482;BME280;5288;42.334;23.876;2022-12-26T02:18:33;56484.22;;;-140.56;76.82
10482;BME280;5288;42.334;23.876;2022-12-26T02:27:10;56513.88;;;-140.56;75.57
10482;BME280;5288;42.334;23.876;2022-12-26T02:30:05;56515.84;;;-140.56;75.91
10482;BME280;5288;42.334;23.876;2022-12-26T02:32:51;56513.88;;;-140.56;75.85
10482;BME280;5288;42.334;23.876;2022-12-26T02:35:31;56519.81;;;-140.56;76.45
10482;BME280;5288;42.334;23.876;2022-12-26T02:38:10;56525.72;;;-140.56;77.72
10482;BME280;5288;42.334;23.876;2022-12-26T02:40:50;56525.72;;;-140.56;78.39
10482;BME280;5288;42.334;23.876;2022-12-26T02:43:25;56537.59;;;-140.56;80.19
10482;BME280;5288;42.334;23.876;2022-12-26T02:46:03;56509.91;;;-140.56;80.55
10482;BME280;5288;42.334;23.876;2022-12-26T02:48:56;56559.31;;;-140.56;81.23
10482;BME280;5288;42.334;23.876;2022-12-26T02:51:35;56527.72;;;-140.56;81.42
10482;BME280;5288;42.334;23.876;2022-12-26T02:54:27;56529.69;;;-140.56;81.13
10482;BME280;5288;42.334;23.876;2022-12-26T02:57:18;56494.09;;;-140.56;80.73
10482;BME280;5288;42.334;23.876;2022-12-26T03:00:06;56494.09;;;-140.56;79.57
10482;BME280;5288;42.334;23.876;2022-12-26T03:02:54;56535.59;;;-140.56;78.53
10482;BME280;5288;42.334;23.876;2022-12-26T03:05:44;56507.94;;;-140.56;78.32
10482;BME280;5288;42.334;23.876;2022-12-26T03:08:32;56480.28;;;-140.56;77.66
10482;BME280;5288;42.334;23.876;2022-12-26T03:11:18;56511.91;;;-140.56;77.11
10482;BME280;5288;42.334;23.876;2022-12-26T03:14:09;56523.75;;;-140.56;77.68
10482;BME280;5288;42.334;23.876;2022-12-26T03:16:39;56525.72;;;-140.56;76.44
10482;BME280;5288;42.334;23.876;2022-12-26T03:19:25;56502.00;;;-140.56;76.30
10482;BME280;5288;42.334;23.876;2022-12-26T03:21:56;56535.59;;;-140.56;75.80
10482;BME280;5288;42.334;23.876;2022-12-26T03:24:24;56511.91;;;-140.56;75.81
10482;BME280;5288;42.334;23.876;2022-12-26T03:27:12;56531.66;;;-140.56;76.26
10482;BME280;5288;42.334;23.876;2022-12-26T03:29:38;56523.75;;;-140.56;75.99
10482;BME280;5288;42.334;23.876;2022-12-26T03:32:22;56531.66;;;-140.56;74.94
10482;BME280;5288;42.334;23.876;2022-12-26T03:34:49;56507.94;;;-140.56;75.04
10482;BME280;5288;42.334;23.876;2022-12-26T03:37:28;56533.63;;;-140.56;75.27
10482;BME280;5288;42.334;23.876;2022-12-26T03:40:06;56492.13;;;-140.56;74.47
10482;BME280;5288;42.334;23.876;2022-12-26T03:42:59;56490.16;;;-140.56;75.24
10482;BME280;5288;42.334;23.876;2022-12-26T03:45:53;56519.81;;;-140.56;74.65
10482;BME280;5288;42.334;23.876;2022-12-26T03:48:46;56539.56;;;-140.56;74.67
10482;BME280;5288;42.334;23.876;2022-12-26T03:51:39;56529.69;;;-140.56;74.93
10482;BME280;5288;42.334;23.876;2022-12-26T03:54:31;56523.75;;;-140.56;74.44
10482;BME280;5288;42.334;23.876;2022-12-26T03:57:20;56531.66;;;-140.56;74.83
10482;BME280;5288;42.334;23.876;2022-12-26T04:00:09;56480.28;;;-140.56;74.30
10482;BME280;5288;42.334;23.876;2022-12-26T04:02:59;56521.78;;;-140.56;74.25
10482;BME280;5288;42.334;23.876;2022-12-26T04:05:46;56521.78;;;-140.56;74.61
10482;BME280;5288;42.334;23.876;2022-12-26T04:08:38;56523.75;;;-140.56;74.81
10482;BME280;5288;42.334;23.876;2022-12-26T04:11:27;56513.88;;;-140.56;74.74
10482;BME280;5288;42.334;23.876;2022-12-26T04:14:33;56523.75;;;-140.56;74.25
10482;BME280;5288;42.334;23.876;2022-12-26T04:17:25;56537.59;;;-140.56;74.48
10482;BME280;5288;42.334;23.876;2022-12-26T04:20:19;56547.47;;;-140.56;74.86
10482;BME280;5288;42.334;23.876;2022-12-26T04:22:50;56547.47;;;-140.56;74.66
10482;BME280;5288;42.334;23.876;2022-12-26T04:25:42;56527.72;;;-140.56;75.52
10482;BME280;5288;42.334;23.876;2022-12-26T04:28:30;56498.06;;;-140.56;74.67
10482;BME280;5288;42.334;23.876;2022-12-26T04:31:19;56527.72;;;-140.56;75.02
10482;BME280;5288;42.334;23.876;2022-12-26T04:34:08;56527.72;;;-140.56;76.24
10482;BME280;5288;42.334;23.876;2022-12-26T04:36:59;56515.84;;;-140.56;76.68
10482;BME280;5288;42.334;23.876;2022-12-26T04:39:48;56496.09;;;-140.56;76.39
10482;BME280;5288;42.334;23.876;2022-12-26T04:42:35;56509.91;;;-140.56;77.21
10482;BME280;5288;42.334;23.876;2022-12-26T04:45:22;56486.19;;;-140.56;77.76
10482;BME280;5288;42.334;23.876;2022-12-26T04:47:50;56511.91;;;-140.56;78.11
10482;BME280;5288;42.334;23.876;2022-12-26T04:50:49;56509.91;;;-140.56;78.62
10482;BME280;5288;42.334;23.876;2022-12-26T04:53:17;56527.72;;;-140.56;79.21
10482;BME280;5288;42.334;23.876;2022-12-26T04:55:44;56525.72;;;-140.56;79.46
10482;BME280;5288;42.334;23.876;2022-12-26T04:58:11;56505.97;;;-140.56;79.81
10482;BME280;5288;42.334;23.876;2022-12-26T05:00:40;56504.00;;;-140.56;80.55
10482;BME280;5288;42.334;23.876;2022-12-26T05:03:08;56492.13;;;-140.56;79.93
10482;BME280;5288;42.334;23.876;2022-12-26T05:05:52;56500.03;;;-140.56;80.45
10482;BME280;5288;42.334;23.876;2022-12-26T05:08:36;56511.91;;;-140.56;80.49
10482;BME280;5288;42.334;23.876;2022-12-26T05:11:21;56507.94;;;-140.56;80.28
10482;BME280;5288;42.334;23.876;2022-12-26T05:13:58;56498.06;;;-140.56;80.11
10482;BME280;5288;42.334;23.876;2022-12-26T05:16:41;56527.72;;;-140.56;80.28
10482;BME280;5288;42.334;23.876;2022-12-26T05:19:25;56537.59;;;-140.56;80.80
10482;BME280;5288;42.334;23.876;2022-12-26T05:22:15;56486.19;;;-140.56;79.33
10482;BME280;5288;42.334;23.876;2022-12-26T05:25:00;56519.81;;;-140.56;79.32
10482;BME280;5288;42.334;23.876;2022-12-26T05:27:44;56505.97;;;-140.56;79.20
10482;BME280;5288;42.334;23.876;2022-12-26T05:30:28;56527.72;;;-140.56;78.37
10482;BME280;5288;42.334;23.876;2022-12-26T05:32:56;56519.81;;;-140.56;77.18
10482;BME280;5288;42.334;23.876;2022-12-26T05:35:41;56531.66;;;-140.56;77.22
10482;BME280;5288;42.334;23.876;2022-12-26T05:38:09;56490.16;;;-140.56;77.18
10482;BME280;5288;42.334;23.876;2022-12-26T05:40:36;56486.19;;;-140.56;77.12
10482;BME280;5288;42.334;23.876;2022-12-26T05:43:03;56507.94;;;-140.56;76.49
10482;BME280;5288;42.334;23.876;2022-12-26T05:45:30;56537.59;;;-140.56;76.82
10482;BME280;5288;42.334;23.876;2022-12-26T05:47:59;56521.78;;;-140.56;76.87
10482;BME280;5288;42.334;23.876;2022-12-26T05:50:27;56509.91;;;-140.56;76.48
10482;BME280;5288;42.334;23.876;2022-12-26T05:52:55;56535.59;;;-140.56;77.29
10482;BME280;5288;42.334;23.876;2022-12-26T05:55:23;56515.84;;;-140.56;76.78
10482;BME280;5288;42.334;23.876;2022-12-26T05:57:50;56480.28;;;-140.56;75.67
10482;BME280;5288;42.334;23.876;2022-12-26T06:00:17;56494.09;;;-140.56;75.17
10482;BME280;5288;42.334;23.876;2022-12-26T06:02:44;56502.00;;;-140.56;75.40
10482;BME280;5288;42.334;23.876;2022-12-26T06:05:12;56529.69;;;-140.56;74.81
10482;BME280;5288;42.334;23.876;2022-12-26T06:07:39;56509.91;;;-140.56;75.47
10482;BME280;5288;42.334;23.876;2022-12-26T06:10:07;56515.84;;;-140.56;74.96
10482;BME280;5288;42.334;23.876;2022-12-26T06:12:34;56513.88;;;-140.56;75.27
10482;BME280;5288;42.334;23.876;2022-12-26T06:15:03;56543.50;;;-140.56;75.17
10482;BME280;5288;42.334;23.876;2022-12-26T06:17:30;56507.94;;;-140.56;75.49
10482;BME280;5288;42.334;23.876;2022-12-26T06:19:57;56511.91;;;-140.56;75.74
10482;BME280;5288;42.334;23.876;2022-12-26T06:22:27;56515.84;;;-140.56;76.58
10482;BME280;5288;42.334;23.876;2022-12-26T06:24:54;56511.91;;;-140.56;76.54
10482;BME280;5288;42.334;23.876;2022-12-26T06:27:21;56519.81;;;-140.56;76.08
10482;BME280;5288;42.334;23.876;2022-12-26T06:29:48;56527.72;;;-140.56;75.64
10482;BME280;5288;42.334;23.876;2022-12-26T06:32:15;56509.91;;;-140.56;75.49
10482;BME280;5288;42.334;23.876;2022-12-26T06:34:42;56537.59;;;-140.56;75.64
10482;BME280;5288;42.334;23.876;2022-12-26T06:37:09;56519.81;;;-140.56;75.34
10482;BME280;5288;42.334;23.876;2022-12-26T06:39:38;56515.84;;;-140.56;75.52
10482;BME280;5288;42.334;23.876;2022-12-26T06:42:05;56533.63;;;-140.56;75.28
10482;BME280;5288;42.334;23.876;2022-12-26T06:44:32;56515.84;;;-140.56;74.65
10482;BME280;5288;42.334;23.876;2022-12-26T06:46:59;56533.63;;;-140.56;74.73
10482;BME280;5288;42.334;23.876;2022-12-26T06:49:27;56511.91;;;-140.56;75.40
10482;BME280;5288;42.334;23.876;2022-12-26T06:51:54;56541.53;;;-140.56;75.04
10482;BME280;5288;42.334;23.876;2022-12-26T06:54:21;56519.81;;;-140.56;75.27
10482;BME280;5288;42.334;23.876;2022-12-26T06:56:49;56547.47;;;-140.56;75.95
10482;BME280;5288;42.334;23.876;2022-12-26T06:59:16;56511.91;;;-140.56;76.81
10482;BME280;5288;42.334;23.876;2022-12-26T07:01:43;56505.97;;;-140.56;77.24
10482;BME280;5288;42.334;23.876;2022-12-26T07:04:11;56517.81;;;-140.56;78.43
10482;BME280;5288;42.334;23.876;2022-12-26T07:06:38;56515.84;;;-140.56;78.75
10482;BME280;5288;42.334;23.876;2022-12-26T07:09:07;56482.25;;;-140.56;79.61
10482;BME280;5288;42.334;23.876;2022-12-26T07:11:37;56504.00;;;-140.56;79.96
10482;BME280;5288;42.334;23.876;2022-12-26T07:14:06;56486.19;;;-140.56;80.60
10482;BME280;5288;42.334;23.876;2022-12-26T07:16:34;56496.09;;;-140.56;80.23
10482;BME280;5288;42.334;23.876;2022-12-26T07:19:01;56521.78;;;-140.56;80.39
10482;BME280;5288;42.334;23.876;2022-12-26T07:21:28;56502.00;;;-140.56;80.45
10482;BME280;5288;42.334;23.876;2022-12-26T07:23:55;56525.72;;;-140.56;80.21
10482;BME280;5288;42.334;23.876;2022-12-26T07:26:23;56511.91;;;-140.56;80.30
10482;BME280;5288;42.334;23.876;2022-12-26T07:28:52;56513.88;;;-140.56;80.62
10482;BME280;5288;42.334;23.876;2022-12-26T07:31:22;56500.03;;;-140.56;79.91
10482;BME280;5288;42.334;23.876;2022-12-26T07:33:50;56521.78;;;-140.56;79.96
10482;BME280;5288;42.334;23.876;2022-12-26T07:36:17;56513.88;;;-140.56;80.22
10482;BME280;5288;42.334;23.876;2022-12-26T07:38:45;56525.72;;;-140.56;79.73
10482;BME280;5288;42.334;23.876;2022-12-26T07:41:12;56490.16;;;-140.56;80.05
10482;BME280;5288;42.334;23.876;2022-12-26T07:43:56;56494.09;;;-140.56;79.56
10482;BME280;5288;42.334;23.876;2022-12-26T07:46:25;56523.75;;;-140.56;79.46
10482;BME280;5288;42.334;23.876;2022-12-26T07:48:52;56496.09;;;-140.56;78.39
10482;BME280;5288;42.334;23.876;2022-12-26T07:51:19;56509.91;;;-140.56;79.03
10482;BME280;5288;42.334;23.876;2022-12-26T07:53:46;56521.78;;;-140.56;78.60
10482;BME280;5288;42.334;23.876;2022-12-26T07:56:13;56486.19;;;-140.56;78.12
10482;BME280;5288;42.334;23.876;2022-12-26T07:58:40;56482.25;;;-140.56;77.92
10482;BME280;5288;42.334;23.876;2022-12-26T08:01:07;56476.31;;;-140.56;77.80
10482;BME280;5288;42.334;23.876;2022-12-26T08:03:36;56470.38;;;-140.56;77.65
10482;BME280;5288;42.334;23.876;2022-12-26T08:06:03;56507.94;;;-140.56;77.50
10482;BME280;5288;42.334;23.876;2022-12-26T08:08:30;56515.84;;;-140.56;76.96
10482;BME280;5288;42.334;23.876;2022-12-26T08:11:00;56490.16;;;-140.56;76.74
10482;BME280;5288;42.334;23.876;2022-12-26T08:13:28;56513.88;;;-140.56;76.52
10482;BME280;5288;42.334;23.876;2022-12-26T08:15:56;56507.94;;;-140.56;76.00
10482;BME280;5288;42.334;23.876;2022-12-26T08:18:23;56490.16;;;-140.56;75.88
10482;BME280;5288;42.334;23.876;2022-12-26T08:20:52;56492.13;;;-140.56;75.70
10482;BME280;5288;42.334;23.876;2022-12-26T08:23:19;56500.03;;;-140.56;75.29
10482;BME280;5288;42.334;23.876;2022-12-26T08:25:46;56488.19;;;-140.56;74.99
10482;BME280;5288;42.334;23.876;2022-12-26T08:28:13;56496.09;;;-140.56;74.49
10482;BME280;5288;42.334;23.876;2022-12-26T08:30:40;56488.19;;;-140.56;74.00
10482;BME280;5288;42.334;23.876;2022-12-26T08:33:07;56472.38;;;-140.56;73.18
10482;BME280;5288;42.334;23.876;2022-12-26T08:35:35;56476.31;;;-140.56;72.99
10482;BME280;5288;42.334;23.876;2022-12-26T08:38:04;56492.13;;;-140.56;72.45
10482;BME280;5288;42.334;23.876;2022-12-26T08:40:31;56468.41;;;-140.56;71.97
10482;BME280;5288;42.334;23.876;2022-12-26T08:42:58;56486.19;;;-140.56;71.70
10482;BME280;5288;42.334;23.876;2022-12-26T08:45:25;56478.28;;;-140.56;71.75
10482;BME280;5288;42.334;23.876;2022-12-26T08:47:53;56462.47;;;-140.56;71.54
10482;BME280;5288;42.334;23.876;2022-12-26T08:50:20;56472.38;;;-140.56;71.18
10482;BME280;5288;42.334;23.876;2022-12-26T08:52:47;56474.34;;;-140.56;70.66
10482;BME280;5288;42.334;23.876;2022-12-26T08:55:16;56464.47;;;-140.56;70.25
10482;BME280;5288;42.334;23.876;2022-12-26T08:57:43;56472.38;;;-140.56;69.46
10482;BME280;5288;42.334;23.876;2022-12-26T09:00:11;56490.16;;;-140.56;68.40
10482;BME280;5288;42.334;23.876;2022-12-26T09:02:38;56474.34;;;-140.56;67.88
10482;BME280;5288;42.334;23.876;2022-12-26T09:05:06;56436.78;;;-140.56;67.30
10482;BME280;5288;42.334;23.876;2022-12-26T09:07:33;56460.50;;;-140.56;66.70
10482;BME280;5288;42.334;23.876;2022-12-26T09:10:00;56492.13;;;-140.56;66.20
10482;BME280;5288;42.334;23.876;2022-12-26T09:12:28;56430.88;;;-140.56;64.95
10482;BME280;5288;42.334;23.876;2022-12-26T09:14:55;56440.75;;;-140.56;64.11
10482;BME280;5288;42.334;23.876;2022-12-26T09:17:26;56420.97;;;-140.56;63.30
10482;BME280;5288;42.334;23.876;2022-12-26T09:20:00;56450.63;;;-140.56;62.16
10482;BME280;5288;42.334;23.876;2022-12-26T09:22:32;56401.22;;;-140.56;61.72
10482;BME280;5288;42.334;23.876;2022-12-26T09:25:27;56395.28;;;-140.56;62.26
10482;BME280;5288;42.334;23.876;2022-12-26T09:28:11;56432.84;;;-140.56;61.11
10482;BME280;5288;42.334;23.876;2022-12-26T09:30:54;56397.25;;;-140.56;59.02
10482;BME280;5288;42.334;23.876;2022-12-26T09:33:36;56405.16;;;-140.56;59.49
10482;BME280;5288;42.334;23.876;2022-12-26T09:36:15;56413.06;;;-140.56;58.69
10482;BME280;5288;42.334;23.876;2022-12-26T09:38:43;56417.03;;;-140.56;59.32
10482;BME280;5288;42.334;23.876;2022-12-26T09:41:27;56385.41;;;-140.56;58.90
10482;BME280;5288;42.334;23.876;2022-12-26T09:44:04;56369.59;;;-140.56;58.21
10482;BME280;5288;42.334;23.876;2022-12-26T09:46:37;56405.16;;;-140.56;58.81
10482;BME280;5288;42.334;23.876;2022-12-26T09:49:11;56391.34;;;-140.56;56.80
10482;BME280;5288;42.334;23.876;2022-12-26T09:51:41;56375.53;;;-140.56;56.96
10482;BME280;5288;42.334;23.876;2022-12-26T09:54:14;56413.06;;;-140.56;55.36
10482;BME280;5288;42.334;23.876;2022-12-26T09:56:45;56401.22;;;-140.56;54.65
10482;BME280;5288;42.334;23.876;2022-12-26T09:59:16;56357.75;;;-140.56;53.84
10482;BME280;5288;42.334;23.876;2022-12-26T10:01:44;56365.66;;;-140.56;52.90
10482;BME280;5288;42.334;23.876;2022-12-26T10:04:20;56341.94;;;-140.56;52.42
10482;BME280;5288;42.334;23.876;2022-12-26T10:06:53;56347.84;;;-140.56;51.65
10482;BME280;5288;42.334;23.876;2022-12-26T10:09:44;56353.78;;;-140.56;51.60
10482;BME280;5288;42.334;23.876;2022-12-26T10:15:29;56316.25;;;-140.56;47.89
10482;BME280;5288;42.334;23.876;2022-12-26T10:18:12;56308.34;;;-140.56;48.43
10482;BME280;5288;42.334;23.876;2022-12-26T10:21:03;56298.44;;;-140.56;48.38
10482;BME280;5288;42.334;23.876;2022-12-26T10:23:43;56322.16;;;-140.56;47.69
10482;BME280;5288;42.334;23.876;2022-12-26T10:26:15;56324.13;;;-140.56;46.57
10482;BME280;5288;42.334;23.876;2022-12-26T10:28:46;56337.97;;;-140.56;47.44
10482;BME280;5288;42.334;23.876;2022-12-26T10:31:20;56302.41;;;-140.56;46.23
10482;BME280;5288;42.334;23.876;2022-12-26T10:33:52;56304.38;;;-140.56;45.36
10482;BME280;5288;42.334;23.876;2022-12-26T10:36:29;56268.81;;;-140.56;44.50
10482;BME280;5288;42.334;23.876;2022-12-26T10:38:58;56288.56;;;-140.56;45.54
10482;BME280;5288;42.334;23.876;2022-12-26T10:41:31;56280.66;;;-140.56;45.73
10482;BME280;5288;42.334;23.876;2022-12-26T10:43:59;56262.88;;;-140.56;45.53
10482;BME280;5288;42.334;23.876;2022-12-26T10:46:39;56276.72;;;-140.56;44.23
10482;BME280;5288;42.334;23.876;2022-12-26T10:49:11;56282.63;;;-140.56;46.17
10482;BME280;5288;42.334;23.876;2022-12-26T10:51:39;56258.94;;;-140.56;44.31
10482;BME280;5288;42.334;23.876;2022-12-26T10:54:12;56284.63;;;-140.56;45.23
10482;BME280;5288;42.334;23.876;2022-12-26T10:56:41;56266.81;;;-140.56;44.71
10482;BME280;5288;42.334;23.876;2022-12-26T10:59:13;56258.94;;;-140.56;43.88
10482;BME280;5288;42.334;23.876;2022-12-26T11:01:43;56268.81;;;-140.56;44.66
10482;BME280;5288;42.334;23.876;2022-12-26T11:04:18;56276.72;;;-140.56;43.64
10482;BME280;5288;42.334;23.876;2022-12-26T11:06:47;56253.00;;;-140.56;43.03
10482;BME280;5288;42.334;23.876;2022-12-26T11:09:38;56266.81;;;-140.56;42.23
10482;BME280;5288;42.334;23.876;2022-12-26T11:12:06;56231.25;;;-140.56;42.27
10482;BME280;5288;42.334;23.876;2022-12-26T11:14:44;56229.28;;;-140.56;41.23
10482;BME280;5288;42.334;23.876;2022-12-26T11:17:23;56227.31;;;-140.56;38.99
10482;BME280;5288;42.334;23.876;2022-12-26T11:20:10;56264.84;;;-140.56;40.71
10482;BME280;5288;42.334;23.876;2022-12-26T11:22:37;56229.28;;;-140.56;39.40
10482;BME280;5288;42.334;23.876;2022-12-26T11:25:19;56213.47;;;-140.56;39.17
10482;BME280;5288;42.334;23.876;2022-12-26T11:27:48;56231.25;;;-140.56;39.77
10482;BME280;5288;42.334;23.876;2022-12-26T11:30:23;56247.06;;;-140.56;38.38
10482;BME280;5288;42.334;23.876;2022-12-26T11:33:04;56223.34;;;-140.56;39.05
10482;BME280;5288;42.334;23.876;2022-12-26T11:35:32;56213.47;;;-140.56;37.53
10482;BME280;5288;42.334;23.876;2022-12-26T11:38:04;56189.75;;;-140.56;37.45
10482;BME280;5288;42.334;23.876;2022-12-26T11:40:35;56207.53;;;-140.56;36.88
10482;BME280;5288;42.334;23.876;2022-12-26T11:43:05;56205.56;;;-140.56;36.41
10482;BME280;5288;42.334;23.876;2022-12-26T11:45:40;56185.81;;;-140.56;35.99
10482;BME280;5288;42.334;23.876;2022-12-26T11:48:24;56231.25;;;-140.56;36.56
10482;BME280;5288;42.334;23.876;2022-12-26T11:50:53;56181.84;;;-140.56;35.87
10482;BME280;5288;42.334;23.876;2022-12-26T11:53:22;56175.91;;;-140.56;35.84
10482;BME280;5288;42.334;23.876;2022-12-26T11:55:57;56227.31;;;-140.56;34.89
10482;BME280;5288;42.334;23.876;2022-12-26T11:58:27;56191.72;;;-140.56;35.73
10482;BME280;5288;42.334;23.876;2022-12-26T12:01:06;56203.59;;;-140.56;35.41
10482;BME280;5288;42.334;23.876;2022-12-26T12:03:41;56175.91;;;-140.56;34.72
10482;BME280;5288;42.334;23.876;2022-12-26T12:06:25;56193.72;;;-140.56;35.52
10482;BME280;5288;42.334;23.876;2022-12-26T12:09:03;56219.41;;;-140.56;34.72
10482;BME280;5288;42.334;23.876;2022-12-26T12:11:35;56235.22;;;-140.56;36.92
10482;BME280;5288;42.334;23.876;2022-12-26T12:14:24;56239.16;;;-140.56;35.90
10482;BME280;5288;42.334;23.876;2022-12-26T12:17:05;56205.56;;;-140.56;35.33
10482;BME280;5288;42.334;23.876;2022-12-26T12:19:47;56229.28;;;-140.56;35.28
10482;BME280;5288;42.334;23.876;2022-12-26T12:22:31;56225.31;;;-140.56;36.59
10482;BME280;5288;42.334;23.876;2022-12-26T12:25:17;56187.78;;;-140.56;36.53
10482;BME280;5288;42.334;23.876;2022-12-26T12:27:52;56221.38;;;-140.56;35.21
10482;BME280;5288;42.334;23.876;2022-12-26T12:30:23;56195.69;;;-140.56;36.18
10482;BME280;5288;42.334;23.876;2022-12-26T12:33:08;56187.78;;;-140.56;34.67
10482;BME280;5288;42.334;23.876;2022-12-26T12:35:52;56146.28;;;-140.56;35.59
10482;BME280;5288;42.334;23.876;2022-12-26T12:38:29;56213.47;;;-140.56;34.32
10482;BME280;5288;42.334;23.876;2022-12-26T12:41:09;56207.53;;;-140.56;35.15
10482;BME280;5288;42.334;23.876;2022-12-26T12:43:44;56187.78;;;-140.56;34.03
10482;BME280;5288;42.334;23.876;2022-12-26T12:46:22;56223.34;;;-140.56;34.64
10482;BME280;5288;42.334;23.876;2022-12-26T12:49:12;56189.75;;;-140.56;34.66
10482;BME280;5288;42.334;23.876;2022-12-26T12:52:01;56203.59;;;-140.56;34.50
10482;BME280;5288;42.334;23.876;2022-12-26T12:54:52;56207.53;;;-140.56;34.17
10482;BME280;5288;42.334;23.876;2022-12-26T12:57:27;56209.50;;;-140.56;35.80
10482;BME280;5288;42.334;23.876;2022-12-26T13:00:03;56217.41;;;-140.56;35.35
10482;BME280;5288;42.334;23.876;2022-12-26T13:02:40;56233.22;;;-140.56;35.14
10482;BME280;5288;42.334;23.876;2022-12-26T13:05:16;56221.38;;;-140.56;35.68
10482;BME280;5288;42.334;23.876;2022-12-26T13:07:48;56262.88;;;-140.56;36.58
10482;BME280;5288;42.334;23.876;2022-12-26T13:10:22;56227.31;;;-140.56;37.49
10482;BME280;5288;42.334;23.876;2022-12-26T13:12:51;56258.94;;;-140.56;37.62
10482;BME280;5288;42.334;23.876;2022-12-26T13:15:30;56209.50;;;-140.56;37.04
10482;BME280;5288;42.334;23.876;2022-12-26T13:18:01;56243.13;;;-140.56;37.45
10482;BME280;5288;42.334;23.876;2022-12-26T13:20:36;56235.22;;;-140.56;38.21
10482;BME280;5288;42.334;23.876;2022-12-26T13:23:11;56286.59;;;-140.56;38.66
10482;BME280;5288;42.334;23.876;2022-12-26T13:26:05;56300.44;;;-140.56;39.85